createdAt,value
2023-08-08T00:00:31.495Z,76.45
2023-08-08T00:02:59.282Z,76.76
2023-08-08T00:05:27.118Z,75.69
2023-08-08T00:07:56.203Z,76.28
2023-08-08T00:10:24.093Z,76.16
2023-08-08T00:12:52.284Z,77.28
2023-08-08T00:15:20.035Z,77.24
2023-08-08T00:17:47.864Z,76.92
2023-08-08T00:20:15.870Z,76.89
2023-08-08T00:22:43.996Z,76.05
2023-08-08T00:25:13.188Z,77.53
2023-08-08T00:27:44.826Z,76.84
2023-08-08T00:30:14.348Z,76.43
2023-08-08T00:32:42.150Z,77.75
2023-08-08T00:35:10.879Z,76.80
2023-08-08T00:37:38.692Z,77.51
2023-08-08T00:40:07.937Z,77.99
2023-08-08T00:42:37.060Z,76.75
2023-08-08T00:45:05.570Z,77.26
2023-08-08T00:47:34.151Z,77.36
2023-08-08T00:50:03.560Z,75.97
2023-08-08T00:52:31.908Z,77.54
2023-08-08T00:55:00.043Z,78.99
2023-08-08T00:57:28.150Z,79.13
2023-08-08T00:59:57.331Z,78.15
2023-08-08T01:02:25.147Z,76.77
2023-08-08T01:04:52.943Z,79.08
2023-08-08T01:07:30.761Z,77.82
2023-08-08T01:10:08.061Z,78.74
2023-08-08T01:12:39.039Z,77.90
2023-08-08T01:15:10.057Z,77.98
2023-08-08T01:17:38.680Z,76.62
2023-08-08T01:20:09.527Z,75.17
2023-08-08T01:22:41.394Z,75.03
2023-08-08T01:25:12.425Z,74.86
2023-08-08T01:27:40.593Z,74.96
2023-08-08T01:30:10.152Z,75.64
2023-08-08T01:32:38.014Z,76.51
2023-08-08T01:35:07.043Z,75.89
2023-08-08T01:37:42.203Z,75.93
2023-08-08T01:40:14.932Z,74.98
2023-08-08T01:42:44.713Z,76.38
2023-08-08T01:45:13.300Z,75.43
2023-08-08T01:47:41.103Z,74.71
2023-08-08T01:50:10.061Z,75.92
2023-08-08T01:52:37.894Z,76.32
2023-08-08T01:55:06.745Z,75.91
2023-08-08T01:57:35.892Z,75.78
2023-08-08T02:00:05.284Z,75.76
2023-08-08T02:02:33.108Z,75.28
2023-08-08T02:05:00.879Z,75.71
2023-08-08T02:07:28.656Z,76.48
2023-08-08T02:09:56.687Z,76.43
2023-08-08T02:12:24.481Z,76.77
2023-08-08T02:14:53.760Z,77.61
2023-08-08T02:17:21.564Z,77.57
2023-08-08T02:19:49.333Z,77.67
2023-08-08T02:22:17.081Z,78.09
2023-08-08T02:24:44.875Z,79.25
2023-08-08T02:27:14.070Z,79.06
2023-08-08T02:29:41.816Z,79.74
2023-08-08T02:32:10.997Z,79.20
2023-08-08T02:34:39.248Z,78.50
2023-08-08T02:37:07.344Z,77.79
2023-08-08T02:39:35.092Z,78.63
2023-08-08T02:42:02.872Z,78.14
2023-08-08T02:44:30.634Z,79.39
2023-08-08T02:46:58.406Z,79.39
2023-08-08T02:49:27.599Z,78.95
2023-08-08T02:51:55.327Z,77.17
2023-08-08T02:54:23.032Z,76.34
2023-08-08T02:56:50.810Z,77.80
2023-08-08T02:59:18.633Z,77.63
2023-08-08T03:01:46.531Z,78.78
2023-08-08T03:04:14.399Z,78.87
2023-08-08T03:06:43.573Z,78.10
2023-08-08T03:09:11.291Z,77.45
2023-08-08T03:11:42.421Z,76.45
2023-08-08T03:14:10.653Z,77.95
2023-08-08T03:16:38.449Z,76.75
2023-08-08T03:19:06.389Z,76.30
2023-08-08T03:21:34.317Z,76.77
2023-08-08T03:24:03.512Z,76.22
2023-08-08T03:26:31.302Z,76.67
2023-08-08T03:28:59.031Z,77.50
2023-08-08T03:31:28.101Z,77.22
2023-08-08T03:33:55.944Z,77.26
2023-08-08T03:36:23.837Z,77.77
2023-08-08T03:38:51.867Z,78.11
2023-08-08T03:41:21.126Z,77.77
2023-08-08T03:43:48.925Z,78.60
2023-08-08T03:46:16.668Z,78.94
2023-08-08T03:48:44.447Z,78.29
2023-08-08T03:51:12.212Z,78.75
2023-08-08T03:53:39.998Z,77.82
2023-08-08T03:56:08.522Z,78.20
2023-08-08T03:58:37.687Z,78.19
2023-08-08T04:01:05.522Z,78.69
2023-08-08T04:03:33.337Z,79.26
2023-08-08T04:06:01.161Z,79.66
2023-08-08T04:08:29.017Z,80.14
2023-08-08T04:10:56.737Z,79.01
2023-08-08T04:13:24.513Z,78.29
2023-08-08T04:15:53.812Z,77.64
2023-08-08T04:18:21.537Z,77.61
2023-08-08T04:20:49.605Z,80.53
2023-08-08T04:23:17.325Z,81.37
2023-08-08T04:25:45.059Z,81.38
2023-08-08T04:28:12.806Z,82.37
2023-08-08T04:30:40.608Z,81.98
2023-08-08T04:33:09.885Z,83.07
2023-08-08T04:35:37.840Z,83.39
2023-08-08T04:38:06.081Z,83.08
2023-08-08T04:40:34.694Z,82.84
2023-08-08T04:43:03.715Z,84.37
2023-08-08T04:45:31.482Z,84.41
2023-08-08T04:47:59.413Z,83.94
2023-08-08T04:50:29.419Z,83.43
2023-08-08T04:52:57.201Z,79.29
2023-08-08T04:55:24.940Z,76.74
2023-08-08T04:57:52.716Z,76.69
2023-08-08T05:00:20.597Z,77.64
2023-08-08T05:02:48.475Z,78.04
2023-08-08T05:05:16.440Z,78.96
2023-08-08T05:07:45.522Z,83.23
2023-08-08T05:10:13.330Z,83.63
2023-08-08T05:12:41.416Z,84.11
2023-08-08T05:15:10.060Z,85.19
2023-08-08T05:17:38.756Z,85.08
2023-08-08T05:20:07.995Z,84.28
2023-08-08T05:22:35.776Z,83.26
2023-08-08T05:25:05.432Z,82.92
2023-08-08T05:27:33.163Z,84.13
2023-08-08T05:30:01.616Z,84.82
2023-08-08T05:32:29.408Z,84.75
2023-08-08T05:34:58.240Z,84.40
2023-08-08T05:37:26.054Z,84.25
2023-08-08T05:39:54.238Z,84.49
2023-08-08T05:42:23.494Z,82.94
2023-08-08T05:44:51.310Z,83.88
2023-08-08T05:47:19.117Z,81.95
2023-08-08T05:49:46.855Z,81.55
2023-08-08T05:52:14.660Z,80.18
2023-08-08T05:54:42.389Z,79.15
2023-08-08T05:57:10.360Z,79.20
2023-08-08T05:59:39.478Z,80.21
2023-08-08T06:02:08.158Z,79.72
2023-08-08T06:04:36.030Z,79.46
2023-08-08T06:07:03.882Z,80.62
2023-08-08T06:09:32.397Z,80.21
2023-08-08T06:12:00.469Z,82.21
2023-08-08T06:14:28.415Z,83.97
2023-08-08T06:16:57.529Z,84.24
2023-08-08T06:19:25.450Z,82.59
2023-08-08T06:21:53.259Z,81.58
2023-08-08T06:24:21.047Z,81.72
2023-08-08T06:26:48.792Z,83.19
2023-08-08T06:29:16.608Z,81.70
2023-08-08T06:31:44.394Z,80.44
2023-08-08T06:34:13.503Z,79.43
2023-08-08T06:36:41.334Z,80.31
2023-08-08T06:39:09.478Z,80.68
2023-08-08T06:41:37.210Z,80.48
2023-08-08T06:44:05.212Z,79.38
2023-08-08T06:46:33.010Z,78.07
2023-08-08T06:49:02.320Z,78.94
2023-08-08T06:51:31.453Z,78.21
2023-08-08T06:53:59.253Z,79.31
2023-08-08T06:56:27.874Z,78.16
2023-08-08T06:58:55.870Z,77.04
2023-08-08T07:01:23.704Z,75.69
2023-08-08T07:03:51.483Z,75.34
2023-08-08T07:06:19.933Z,74.45
2023-08-08T07:08:49.056Z,75.46
2023-08-08T07:11:16.979Z,73.76
2023-08-08T07:13:44.709Z,73.34
2023-08-08T07:16:12.543Z,73.53
2023-08-08T07:18:40.515Z,73.48
2023-08-08T07:21:08.281Z,74.55
2023-08-08T07:23:36.096Z,74.25
2023-08-08T07:26:05.214Z,74.46
2023-08-08T07:28:33.558Z,72.17
2023-08-08T07:31:01.376Z,73.59
2023-08-08T07:33:29.257Z,75.40
2023-08-08T07:35:57.086Z,74.17
2023-08-08T07:38:24.915Z,72.99
2023-08-08T07:40:52.677Z,75.30
2023-08-08T07:43:22.699Z,75.83
2023-08-08T07:45:50.490Z,75.32
2023-08-08T07:48:18.247Z,74.52
2023-08-08T07:50:46.040Z,72.75
2023-08-08T07:53:13.850Z,72.11
2023-08-08T07:55:41.555Z,71.26
2023-08-08T07:58:09.960Z,70.13
2023-08-08T08:00:39.578Z,72.71
2023-08-08T08:03:07.609Z,69.95
2023-08-08T08:05:36.057Z,68.84
2023-08-08T08:08:03.937Z,69.79
2023-08-08T08:10:31.917Z,68.12
2023-08-08T08:12:59.880Z,67.85
2023-08-08T08:15:27.921Z,68.12
2023-08-08T08:17:57.173Z,67.32
2023-08-08T08:20:26.253Z,68.45
2023-08-08T08:22:54.050Z,67.42
2023-08-08T08:25:21.875Z,67.32
2023-08-08T08:27:49.655Z,67.46
2023-08-08T08:30:17.760Z,66.22
2023-08-08T08:32:45.786Z,66.91
2023-08-08T08:35:15.075Z,66.65
2023-08-08T08:37:42.796Z,68.65
2023-08-08T08:40:11.758Z,67.00
2023-08-08T08:42:40.727Z,66.92
2023-08-08T08:45:10.958Z,65.82
2023-08-08T08:47:39.393Z,64.81
2023-08-08T08:50:08.684Z,64.13
2023-08-08T08:52:38.204Z,63.09
2023-08-08T08:55:07.972Z,64.10
2023-08-08T08:57:35.843Z,63.78
2023-08-08T09:00:04.252Z,63.94
2023-08-08T09:02:32.070Z,61.75
2023-08-08T09:05:00.796Z,59.46
2023-08-08T09:07:31.526Z,60.51
2023-08-08T09:10:00.716Z,59.18
2023-08-08T09:12:29.373Z,60.07
2023-08-08T09:14:58.207Z,58.66
2023-08-08T09:17:34.465Z,59.30
2023-08-08T09:20:12.048Z,58.45
2023-08-08T09:22:39.891Z,60.52
2023-08-08T09:25:10.157Z,63.14
2023-08-08T09:27:38.224Z,62.58
2023-08-08T09:30:07.579Z,60.67
2023-08-08T09:32:35.494Z,60.00
2023-08-08T09:35:03.680Z,59.52
2023-08-08T09:37:31.489Z,59.00
2023-08-08T09:40:00.374Z,59.19
2023-08-08T09:42:30.565Z,57.67
2023-08-08T09:44:59.425Z,59.43
2023-08-08T09:47:31.899Z,59.30
2023-08-08T09:50:01.536Z,59.98
2023-08-08T09:52:29.613Z,57.44
2023-08-08T09:54:57.871Z,58.34
2023-08-08T09:57:26.453Z,57.20
2023-08-08T09:59:55.585Z,58.48
2023-08-08T10:02:23.476Z,57.61
2023-08-08T10:04:51.464Z,57.02
2023-08-08T10:07:19.210Z,56.82
2023-08-08T10:09:47.000Z,57.40
2023-08-08T10:12:15.128Z,57.67
2023-08-08T10:14:44.933Z,58.62
2023-08-08T10:17:17.497Z,58.47
2023-08-08T10:19:53.317Z,57.83
2023-08-08T10:22:24.102Z,57.37
2023-08-08T10:24:54.404Z,58.21
2023-08-08T10:27:33.962Z,56.71
2023-08-08T10:30:08.123Z,55.58
2023-08-08T10:32:44.201Z,55.55
2023-08-08T10:35:13.816Z,56.33
2023-08-08T10:37:42.357Z,55.96
2023-08-08T10:40:12.538Z,54.26
2023-08-08T10:42:45.162Z,54.56
2023-08-08T10:45:16.182Z,53.83
2023-08-08T10:47:46.162Z,52.92
2023-08-08T10:50:15.519Z,53.24
2023-08-08T10:52:54.912Z,52.86
2023-08-08T10:55:24.305Z,53.18
2023-08-08T10:58:00.035Z,53.30
2023-08-08T11:00:32.614Z,51.69
2023-08-08T11:03:02.815Z,51.58
2023-08-08T11:05:33.003Z,53.27
2023-08-08T11:08:01.409Z,53.38
2023-08-08T11:10:32.173Z,52.28
2023-08-08T11:13:01.390Z,51.49
2023-08-08T11:15:29.750Z,51.69
2023-08-08T11:17:58.733Z,51.71
2023-08-08T11:20:31.991Z,50.35
2023-08-08T11:23:00.064Z,50.82
2023-08-08T11:25:29.172Z,51.07
2023-08-08T11:27:57.660Z,50.73
2023-08-08T11:30:29.537Z,50.94
2023-08-08T11:35:29.567Z,51.81
2023-08-08T11:37:59.291Z,50.42
2023-08-08T11:40:28.945Z,50.80
2023-08-08T11:42:57.865Z,49.26
2023-08-08T11:45:26.359Z,49.44
2023-08-08T11:47:55.732Z,50.50
2023-08-08T11:50:25.353Z,51.68
2023-08-08T11:52:55.804Z,51.88
2023-08-08T11:55:28.872Z,51.85
2023-08-08T11:58:00.691Z,50.13
2023-08-08T12:00:31.113Z,50.67
2023-08-08T12:02:59.980Z,50.32
2023-08-08T12:05:28.114Z,50.73
2023-08-08T12:07:57.491Z,50.27
2023-08-08T12:10:26.184Z,50.26
2023-08-08T12:12:59.745Z,51.14
2023-08-08T12:15:30.917Z,50.07
2023-08-08T12:18:00.676Z,48.82
2023-08-08T12:20:30.449Z,50.68
2023-08-08T12:22:59.792Z,50.63
2023-08-08T12:25:27.828Z,50.73
2023-08-08T12:27:55.672Z,50.76
2023-08-08T12:30:23.519Z,50.94
2023-08-08T12:32:51.332Z,49.39
2023-08-08T12:35:19.107Z,49.37
2023-08-08T12:37:46.867Z,49.97
2023-08-08T12:40:16.313Z,50.07
2023-08-08T12:42:44.059Z,50.74
2023-08-08T12:45:12.760Z,51.67
2023-08-08T12:47:40.575Z,51.19
2023-08-08T12:50:08.978Z,51.04
2023-08-08T12:52:36.978Z,49.67
2023-08-08T12:55:05.172Z,50.88
2023-08-08T12:57:34.773Z,51.87
2023-08-08T13:00:02.511Z,51.22
2023-08-08T13:02:30.351Z,52.50
2023-08-08T13:04:58.221Z,50.17
2023-08-08T13:07:26.882Z,49.16
2023-08-08T13:09:54.658Z,51.36
2023-08-08T13:12:22.607Z,51.29
2023-08-08T13:14:51.830Z,51.92
2023-08-08T13:17:19.662Z,53.01
2023-08-08T13:19:47.535Z,51.87
2023-08-08T13:22:15.306Z,52.80
2023-08-08T13:24:43.185Z,51.82
2023-08-08T13:27:10.917Z,52.00
2023-08-08T13:29:38.629Z,52.83
2023-08-08T13:32:08.045Z,52.41
2023-08-08T13:34:35.812Z,52.96
2023-08-08T13:37:04.217Z,52.82
2023-08-08T13:39:31.945Z,52.76
2023-08-08T13:41:59.947Z,52.28
2023-08-08T13:44:28.216Z,52.74
2023-08-08T13:46:56.532Z,52.70
2023-08-08T13:49:27.323Z,52.68
2023-08-08T13:51:55.747Z,52.38
2023-08-08T13:54:23.526Z,53.27
2023-08-08T13:56:51.260Z,53.82
2023-08-08T13:59:19.037Z,54.58
2023-08-08T14:01:46.838Z,56.14
2023-08-08T14:04:14.649Z,55.55
2023-08-08T14:06:43.790Z,55.57
2023-08-08T14:09:12.804Z,55.71
2023-08-08T14:11:41.836Z,55.65
2023-08-08T14:14:09.568Z,55.06
2023-08-08T14:16:37.361Z,54.79
2023-08-08T14:19:05.725Z,55.08
2023-08-08T14:21:33.410Z,52.34
2023-08-08T14:24:02.939Z,52.43
2023-08-08T14:26:30.684Z,50.18
2023-08-08T14:28:59.266Z,52.58
2023-08-08T14:31:27.165Z,53.36
2023-08-08T14:33:54.997Z,55.12
2023-08-08T14:36:22.794Z,53.59
2023-08-08T14:38:50.519Z,53.98
2023-08-08T14:41:19.674Z,54.83
2023-08-08T14:43:47.420Z,54.54
2023-08-08T14:46:15.369Z,53.95
2023-08-08T14:48:43.134Z,54.89
2023-08-08T14:51:10.948Z,55.18
2023-08-08T14:53:38.720Z,54.48
2023-08-08T14:56:06.488Z,55.29
2023-08-08T14:58:36.010Z,55.04
2023-08-08T15:01:03.913Z,53.95
2023-08-08T15:03:31.691Z,54.11
2023-08-08T15:05:59.555Z,54.82
2023-08-08T15:08:27.706Z,54.44
2023-08-08T15:10:56.741Z,55.72
2023-08-08T15:13:24.635Z,56.25
2023-08-08T15:15:53.905Z,54.73
2023-08-08T15:18:21.928Z,55.12
2023-08-08T15:20:49.675Z,54.54
2023-08-08T15:23:17.419Z,55.45
2023-08-08T15:25:45.778Z,54.19
2023-08-08T15:28:13.528Z,53.97
2023-08-08T15:30:41.282Z,56.31
2023-08-08T15:33:10.469Z,57.15
2023-08-08T15:35:38.249Z,57.51
2023-08-08T15:38:06.118Z,56.05
2023-08-08T15:40:33.942Z,54.73
2023-08-08T15:43:01.731Z,54.19
2023-08-08T15:45:29.472Z,53.41
2023-08-08T15:47:57.223Z,55.19
2023-08-08T15:50:26.552Z,56.13
2023-08-08T15:52:57.133Z,56.02
2023-08-08T15:55:25.011Z,55.92
2023-08-08T15:57:52.774Z,56.26
2023-08-08T16:00:20.875Z,55.02
2023-08-08T16:02:48.706Z,55.47
2023-08-08T16:05:16.924Z,55.69
2023-08-08T16:07:46.020Z,55.64
2023-08-08T16:10:13.938Z,54.93
2023-08-08T16:12:42.104Z,55.03
2023-08-08T16:15:10.317Z,54.64
2023-08-08T16:17:38.100Z,54.51
2023-08-08T16:20:07.133Z,54.97
2023-08-08T16:22:35.277Z,55.41
2023-08-08T16:25:04.889Z,55.50
2023-08-08T16:27:32.807Z,55.35
2023-08-08T16:30:00.606Z,54.81
2023-08-08T16:32:28.654Z,55.60
2023-08-08T16:34:56.943Z,54.91
2023-08-08T16:37:24.776Z,55.13
2023-08-08T16:39:52.642Z,55.06
2023-08-08T16:42:22.104Z,54.47
2023-08-08T16:44:49.871Z,54.58
2023-08-08T16:47:17.908Z,55.04
2023-08-08T16:49:47.388Z,55.34
2023-08-08T16:52:15.232Z,55.81
2023-08-08T16:54:43.143Z,57.20
2023-08-08T16:57:12.723Z,57.67
2023-08-08T16:59:41.855Z,57.50
2023-08-08T17:02:09.629Z,58.00
2023-08-08T17:04:37.391Z,58.15
2023-08-08T17:07:05.138Z,57.79
2023-08-08T17:09:34.153Z,57.12
2023-08-08T17:12:01.959Z,57.36
2023-08-08T17:14:29.763Z,57.58
2023-08-08T17:16:59.618Z,56.97
2023-08-08T17:19:27.500Z,57.70
2023-08-08T17:21:57.374Z,57.97
2023-08-08T17:24:30.809Z,58.19
2023-08-08T17:27:03.391Z,57.10
2023-08-08T17:29:31.217Z,57.24
2023-08-08T17:32:00.697Z,57.27
2023-08-08T17:34:28.804Z,58.24
2023-08-08T17:36:57.103Z,57.79
2023-08-08T17:39:24.909Z,57.79
2023-08-08T17:41:52.682Z,57.93
2023-08-08T17:44:20.511Z,57.51
2023-08-08T17:46:49.061Z,57.83
2023-08-08T17:49:18.196Z,58.37
2023-08-08T17:51:45.946Z,57.66
2023-08-08T17:54:13.848Z,58.23
2023-08-08T17:56:41.572Z,60.42
2023-08-08T17:59:09.312Z,60.47
2023-08-08T18:01:37.112Z,60.50
2023-08-08T18:04:05.663Z,61.45
2023-08-08T18:06:34.732Z,61.35
2023-08-08T18:09:02.538Z,60.89
2023-08-08T18:11:30.365Z,60.34
2023-08-08T18:13:58.288Z,59.60
2023-08-08T18:16:26.117Z,60.31
2023-08-08T18:18:54.223Z,59.74
2023-08-08T18:21:21.994Z,59.96
2023-08-08T18:23:51.128Z,62.39
2023-08-08T18:26:19.391Z,62.50
2023-08-08T18:28:47.454Z,64.52
2023-08-08T18:31:15.675Z,64.76
2023-08-08T18:33:44.689Z,62.91
2023-08-08T18:36:12.661Z,61.91
2023-08-08T18:38:40.436Z,63.77
2023-08-08T18:41:09.545Z,63.23
2023-08-08T18:43:37.302Z,64.12
2023-08-08T18:46:05.099Z,64.29
2023-08-08T18:48:32.871Z,65.57
2023-08-08T18:51:01.459Z,65.72
2023-08-08T18:53:29.296Z,66.54
2023-08-08T18:55:57.014Z,65.79
2023-08-08T18:58:26.104Z,66.72
2023-08-08T19:00:53.858Z,67.37
2023-08-08T19:03:21.812Z,67.02
2023-08-08T19:05:49.737Z,68.36
2023-08-08T19:08:17.570Z,67.24
2023-08-08T19:10:46.206Z,68.03
2023-08-08T19:13:14.403Z,68.43
2023-08-08T19:15:44.411Z,70.07
2023-08-08T19:18:12.478Z,69.30
2023-08-08T19:20:40.247Z,69.86
2023-08-08T19:23:08.743Z,69.12
2023-08-08T19:25:36.507Z,69.70
2023-08-08T19:28:04.653Z,70.69
2023-08-08T19:30:32.414Z,69.44
2023-08-08T19:33:01.576Z,70.33
2023-08-08T19:35:29.422Z,69.86
2023-08-08T19:37:57.232Z,68.93
2023-08-08T19:40:25.060Z,69.78
2023-08-08T19:42:54.719Z,71.11
2023-08-08T19:45:22.493Z,71.20
2023-08-08T19:47:50.370Z,71.36
2023-08-08T19:50:19.565Z,69.77
2023-08-08T19:52:48.187Z,70.75
2023-08-08T19:55:16.481Z,71.86
2023-08-08T19:57:44.219Z,70.93
2023-08-08T20:00:12.696Z,70.59
2023-08-08T20:02:41.384Z,69.92
2023-08-08T20:05:11.520Z,71.10
2023-08-08T20:07:41.117Z,71.88
2023-08-08T20:10:10.346Z,71.83
2023-08-08T20:12:38.288Z,71.28
2023-08-08T20:15:07.146Z,73.26
2023-08-08T20:17:35.005Z,73.80
2023-08-08T20:20:02.831Z,72.34
2023-08-08T20:22:30.626Z,72.51
2023-08-08T20:24:59.737Z,72.17
2023-08-08T20:27:27.789Z,72.23
2023-08-08T20:29:55.733Z,72.16
2023-08-08T20:32:23.483Z,73.97
2023-08-08T20:34:51.183Z,74.85
2023-08-08T20:37:19.937Z,74.05
2023-08-08T20:39:47.760Z,74.81
2023-08-08T20:42:16.857Z,75.16
2023-08-08T20:44:44.633Z,75.11
2023-08-08T20:47:12.399Z,76.16
2023-08-08T20:49:40.166Z,75.27
2023-08-08T20:52:07.914Z,75.39
2023-08-08T20:54:35.639Z,74.95
2023-08-08T20:57:03.638Z,75.72
2023-08-08T20:59:33.101Z,78.19
2023-08-08T21:02:00.886Z,77.65
2023-08-08T21:04:28.657Z,79.09
2023-08-08T21:06:57.598Z,78.90
2023-08-08T21:09:25.364Z,78.54
2023-08-08T21:11:53.109Z,78.12
2023-08-08T21:14:21.321Z,77.62
2023-08-08T21:16:50.546Z,76.95
2023-08-08T21:19:18.307Z,78.76
2023-08-08T21:21:46.064Z,78.76
2023-08-08T21:24:13.844Z,78.08
2023-08-08T21:26:41.612Z,78.96
2023-08-08T21:29:09.384Z,78.05
2023-08-08T21:31:37.156Z,77.80
2023-08-08T21:34:06.566Z,78.26
2023-08-08T21:36:34.482Z,78.16
2023-08-08T21:39:03.694Z,78.00
2023-08-08T21:41:31.465Z,77.18
2023-08-08T21:43:59.246Z,77.49
2023-08-08T21:46:27.132Z,77.00
2023-08-08T21:48:55.357Z,77.60
2023-08-08T21:51:24.998Z,77.54
2023-08-08T21:53:52.726Z,78.42
2023-08-08T21:56:20.438Z,77.90
2023-08-08T21:58:48.207Z,78.02
2023-08-08T22:01:16.055Z,79.20
2023-08-08T22:03:45.294Z,79.83
2023-08-08T22:06:13.151Z,80.39
2023-08-08T22:08:42.269Z,80.87
2023-08-08T22:11:10.405Z,82.08
2023-08-08T22:13:38.923Z,82.03
2023-08-08T22:16:06.659Z,82.10
2023-08-08T22:18:34.408Z,83.58
2023-08-08T22:21:02.176Z,83.71
2023-08-08T22:23:29.927Z,81.99
2023-08-08T22:25:59.072Z,82.38
2023-08-08T22:28:26.826Z,81.87
2023-08-08T22:30:54.727Z,82.02
2023-08-08T22:33:22.596Z,81.88
2023-08-08T22:35:50.335Z,83.38
2023-08-08T22:38:18.604Z,84.90
2023-08-08T22:40:47.982Z,83.85
2023-08-08T22:43:17.469Z,83.18
2023-08-08T22:45:45.290Z,83.27
2023-08-08T22:48:13.472Z,82.86
2023-08-08T22:50:43.829Z,82.33
2023-08-08T22:53:11.987Z,83.88
2023-08-08T22:55:39.774Z,85.03
2023-08-08T22:58:07.593Z,84.01
2023-08-08T23:00:38.054Z,83.56
2023-08-08T23:03:07.508Z,83.34
2023-08-08T23:05:35.382Z,82.87
2023-08-08T23:08:05.608Z,83.62
2023-08-08T23:10:33.416Z,85.75
2023-08-08T23:13:01.211Z,85.09
2023-08-08T23:15:28.979Z,85.63
2023-08-08T23:17:58.145Z,85.33
2023-08-08T23:20:26.089Z,85.45
2023-08-08T23:22:53.805Z,86.38
2023-08-08T23:25:23.755Z,85.71
2023-08-08T23:27:51.764Z,87.78
2023-08-08T23:30:19.778Z,88.05
2023-08-08T23:32:54.482Z,87.53
2023-08-08T23:35:24.678Z,86.61
2023-08-08T23:37:52.450Z,87.32
2023-08-08T23:40:20.268Z,87.74
2023-08-08T23:42:48.190Z,87.81
2023-08-08T23:45:16.444Z,88.89
2023-08-08T23:47:44.250Z,87.50
2023-08-08T23:50:12.240Z,86.80
2023-08-08T23:52:41.343Z,89.16
2023-08-08T23:55:10.753Z,91.04
2023-08-08T23:57:38.930Z,89.86
